Pagina principală
METAR-TAF:

METAR-TAF

Aeroporturi :

Portland International Airport

Portland, Oregon, Statele Unite ale Americii

Latitudine: 45-35-27N, longitudine: 122-36-01W, elevație: 8 m

Observații meteo curente

Raportul a fost făcut în urmă cu 59 de minute, la 08:53 UTC
Vânt 6 kt de la Nord/Nord-vest
Temperatură 12°C
Umiditate 67%
Presiune 1022 hPa
Vizibilitate: 16.1 km
Cer senin

METAR: KPDX 140853Z 33006KT 10SM CLR 12/06 A3017 RMK AO2 SLP215 T01170061 51016

Ora: 02:52 (09:52 UTC)

Prognoză

Raportul a fost făcut în urmă cu 44 de minute, la 09:08 UTC
Prognoză valabilă de la 14 ora 09 UTC la 15 ora 06 UTC
Vânt 5 kt din direcții variabile
Vizibilitate: 10 km
Cer senin
De la 14 ora 2000 UTC
Vânt 5 kt de la Sud-vest
Vizibilitate: 10 km
Nori fragmentați la o înălțime de 8000 picior

TAF: KPDX 140908Z 1409/1506 VRB05KT P6SM SKC FM142000 23005KT P6SM BKN080

Observații și prognoze meteo pentru peste 4.000 de aeroporturi (rapoarte METAR și TAF).

Stațiile disponibile sunt reprezentate pe hartă prin puncte galbene și roșii.

Țineți indicatorul mouse-ului pe punctul dorit pentru a vedea denumirea stației.

Apoi, faceți clic pentru a vedea observațiile și prognozele meteorologice.

Pentru a schimba harta: Pentru mărire, faceți clic pe butoanele verzi cu cruce neagră; pentru micșorare, pe butonul verde cu o liniuță; pentru hărți învecinate, pe săgețile verzi.


METAR-TAF: